Time;durP1;ratioP1;P1;durP2;ratioP2;P2;SDS_P1;SDS_P2;PMS_P1;PMS_P2;Temp;Humidity;BMP_temperature;BMP_pressure;BME280_temperature;BME280_humidity;BME280_pressure;Samples;Min_cycle;Max_cycle;Signal;HPM_P1;HPM_P2
2022/09/21 00:00:27;;;;;;;14.32;4.63;;;;;;;;;;4943658;28;20607;-90
2022/09/21 00:02:55;;;;;;;17.33;5.20;;;;;;;;;;4946947;28;20035;-90
2022/09/21 00:05:21;;;;;;;10.23;4.07;;;;;;;;;;4938703;28;20551;-90
2022/09/21 00:07:47;;;;;;;19.10;4.72;;;;;;;;;;4938368;28;20476;-89
2022/09/21 00:10:13;;;;;;;12.95;4.10;;;;;;;;;;4937780;28;20060;-90
2022/09/21 00:12:40;;;;;;;11.70;4.30;;;;;;;;;;4926387;28;20138;-90
2022/09/21 00:15:10;;;;;;;14.43;4.82;;;;;;;;;;4953938;28;20494;-90
2022/09/21 00:17:39;;;;;;;13.57;4.32;;;;;;;;;;4939202;28;20526;-90
2022/09/21 00:20:05;;;;;;;10.70;4.68;;;;;;;;;;4940900;28;20039;-90
2022/09/21 00:22:32;;;;;;;13.18;4.70;;;;;;;;;;4939586;28;20495;-90
2022/09/21 00:25:02;;;;;;;9.15;4.07;;;;;;;;;;4941037;28;20035;-89
2022/09/21 00:27:28;;;;;;;9.50;3.47;;;;;;;;;;4941945;28;20039;-90
2022/09/21 00:30:02;;;;;;;12.65;4.25;;;;;;;;;;4938866;28;20781;-90
2022/09/21 00:32:30;;;;;;;13.52;4.07;;;;;;;;;;4938198;28;20113;-90
2022/09/21 00:34:56;;;;;;;11.50;3.80;;;;;;;;;;4924963;28;20114;-89
2022/09/21 00:37:22;;;;;;;13.63;3.92;;;;;;;;;;4936209;28;20063;-89
2022/09/21 00:39:49;;;;;;;15.40;4.40;;;;;;;;;;4937164;28;20310;-89
2022/09/21 00:42:21;;;;;;;7.95;3.85;;;;;;;;;;4937145;28;20039;-89
2022/09/21 00:44:47;;;;;;;9.70;3.80;;;;;;;;;;4933404;28;20086;-90
2022/09/21 00:47:14;;;;;;;8.13;4.15;;;;;;;;;;4952084;28;20086;-89
2022/09/21 00:49:42;;;;;;;8.23;3.50;;;;;;;;;;4956855;28;20030;-89
2022/09/21 00:52:09;;;;;;;8.63;3.30;;;;;;;;;;4950943;28;20028;-89
2022/09/21 00:54:43;;;;;;;13.48;4.50;;;;;;;;;;4940787;28;20039;-89
2022/09/21 00:57:10;;;;;;;14.07;3.70;;;;;;;;;;4937663;28;20039;-89
2022/09/21 00:59:37;;;;;;;12.68;4.15;;;;;;;;;;4930714;29;20400;-89
2022/09/21 01:02:04;;;;;;;11.45;3.53;;;;;;;;;;4954931;28;20046;-89
2022/09/21 01:04:31;;;;;;;9.15;3.28;;;;;;;;;;4948019;28;20512;-89
2022/09/21 01:06:58;;;;;;;9.77;4.00;;;;;;;;;;4943922;28;20051;-89
2022/09/21 01:09:25;;;;;;;7.65;3.63;;;;;;;;;;4947658;28;20466;-89
2022/09/21 01:12:17;;;;;;;8.43;3.28;;;;;;;;;;4946544;28;20046;-89
2022/09/21 01:14:54;;;;;;;11.82;3.72;;;;;;;;;;4940284;28;20047;-89
2022/09/21 01:17:32;;;;;;;10.57;3.78;;;;;;;;;;4937953;28;20110;-90
2022/09/21 01:20:01;;;;;;;10.10;3.35;;;;;;;;;;4938592;28;20040;-89
2022/09/21 01:22:46;;;;;;;16.27;3.58;;;;;;;;;;4946801;28;20487;-89
2022/09/21 01:25:31;;;;;;;8.57;3.97;;;;;;;;;;4944387;28;20120;-89
2022/09/21 01:27:58;;;;;;;10.05;3.85;;;;;;;;;;4939293;28;20059;-90
2022/09/21 01:30:24;;;;;;;6.05;3.13;;;;;;;;;;4942334;28;20038;-90
2022/09/21 01:32:56;;;;;;;10.30;3.33;;;;;;;;;;4943081;28;20117;-89
2022/09/21 01:35:26;;;;;;;18.35;4.50;;;;;;;;;;4943105;28;20094;-90
2022/09/21 01:37:52;;;;;;;10.15;3.92;;;;;;;;;;4959519;28;20138;-91
2022/09/21 01:40:24;;;;;;;8.15;3.60;;;;;;;;;;4943467;28;20046;-90
2022/09/21 01:42:51;;;;;;;10.88;3.75;;;;;;;;;;4947440;28;20591;-90
2022/09/21 01:45:24;;;;;;;6.22;3.75;;;;;;;;;;4951831;28;20019;-90
2022/09/21 01:47:51;;;;;;;8.77;3.58;;;;;;;;;;4943628;28;20043;-89
2022/09/21 01:50:19;;;;;;;8.05;4.03;;;;;;;;;;4960493;28;20028;-89
2022/09/21 01:52:51;;;;;;;7.25;3.22;;;;;;;;;;4945426;28;20062;-89
2022/09/21 01:55:20;;;;;;;10.73;3.38;;;;;;;;;;4942433;28;20101;-89
2022/09/21 01:57:51;;;;;;;8.15;3.85;;;;;;;;;;4958001;28;20464;-89
2022/09/21 02:00:18;;;;;;;10.18;3.60;;;;;;;;;;4941115;28;20612;-89
2022/09/21 02:02:53;;;;;;;11.95;3.42;;;;;;;;;;4944913;28;20074;-89
2022/09/21 02:05:21;;;;;;;12.60;3.28;;;;;;;;;;4955793;28;20031;-89
2022/09/21 02:07:47;;;;;;;9.88;3.22;;;;;;;;;;4945225;28;20121;-89
2022/09/21 02:10:17;;;;;;;6.93;3.55;;;;;;;;;;4938611;28;20035;-89
2022/09/21 02:12:43;;;;;;;12.32;4.57;;;;;;;;;;4942998;28;20103;-90
2022/09/21 02:15:09;;;;;;;11.63;5.40;;;;;;;;;;4924479;28;20242;-89
2022/09/21 02:17:51;;;;;;;13.60;4.22;;;;;;;;;;4929781;28;20126;-89
2022/09/21 02:20:26;;;;;;;9.80;4.10;;;;;;;;;;4937881;28;20034;-88
2022/09/21 02:22:58;;;;;;;9.80;3.70;;;;;;;;;;4959975;28;20078;-89
2022/09/21 02:25:24;;;;;;;10.40;3.92;;;;;;;;;;4941379;28;20098;-90
2022/09/21 02:27:56;;;;;;;9.52;4.13;;;;;;;;;;4941547;28;20046;-90
2022/09/21 02:30:25;;;;;;;14.68;4.75;;;;;;;;;;4938347;28;20035;-89
2022/09/21 02:33:10;;;;;;;13.07;4.32;;;;;;;;;;4960064;28;20333;-89
2022/09/21 02:35:55;;;;;;;10.65;3.78;;;;;;;;;;4940643;28;20039;-89
2022/09/21 02:38:31;;;;;;;10.25;4.03;;;;;;;;;;4932984;28;20108;-89
2022/09/21 02:41:15;;;;;;;11.20;3.75;;;;;;;;;;4923137;29;20067;-89
2022/09/21 02:43:45;;;;;;;10.32;4.28;;;;;;;;;;4923886;29;20031;-89
2022/09/21 02:46:17;;;;;;;10.07;4.55;;;;;;;;;;4916007;29;20060;-90
2022/09/21 02:48:47;;;;;;;13.40;4.63;;;;;;;;;;4937474;28;20130;-89
2022/09/21 02:51:16;;;;;;;13.50;5.03;;;;;;;;;;4921143;29;20032;-89
2022/09/21 02:53:43;;;;;;;13.48;4.32;;;;;;;;;;4918011;29;20321;-88
2022/09/21 02:56:10;;;;;;;13.25;4.85;;;;;;;;;;4896089;29;20062;-90
2022/09/21 02:58:58;;;;;;;17.65;4.13;;;;;;;;;;4907710;29;20032;-88
2022/09/21 03:01:25;;;;;;;11.55;4.57;;;;;;;;;;4907582;29;20043;-90
2022/09/21 03:03:52;;;;;;;15.35;4.75;;;;;;;;;;4889557;29;20044;-90
2022/09/21 03:06:18;;;;;;;15.77;4.60;;;;;;;;;;4908828;29;20036;-89
2022/09/21 03:08:44;;;;;;;14.90;5.30;;;;;;;;;;4927050;29;20036;-89
2022/09/21 03:11:10;;;;;;;15.60;4.68;;;;;;;;;;4908553;29;20027;-89
2022/09/21 03:13:36;;;;;;;14.15;5.15;;;;;;;;;;4909965;29;20050;-89
2022/09/21 03:16:04;;;;;;;14.70;5.50;;;;;;;;;;4917860;29;20036;-90
2022/09/21 03:18:30;;;;;;;14.35;4.88;;;;;;;;;;4923476;29;20039;-90
2022/09/21 03:20:57;;;;;;;12.27;5.10;;;;;;;;;;4911747;29;20027;-90
2022/09/21 03:23:23;;;;;;;16.67;5.20;;;;;;;;;;4910161;29;20048;-90
2022/09/21 03:25:51;;;;;;;20.10;5.15;;;;;;;;;;4914926;29;20067;-90
2022/09/21 03:28:17;;;;;;;10.43;5.03;;;;;;;;;;4927468;29;20024;-90
2022/09/21 03:30:43;;;;;;;19.10;4.78;;;;;;;;;;4922061;29;20429;-89
2022/09/21 03:33:10;;;;;;;12.02;4.82;;;;;;;;;;4906596;29;20604;-89
2022/09/21 03:35:36;;;;;;;12.23;5.05;;;;;;;;;;4908904;29;20464;-89
2022/09/21 03:38:02;;;;;;;16.58;5.57;;;;;;;;;;4908222;28;20060;-90
2022/09/21 03:40:28;;;;;;;11.25;4.90;;;;;;;;;;4889518;29;20550;-89
2022/09/21 03:42:55;;;;;;;13.32;4.95;;;;;;;;;;4901011;29;20525;-89
2022/09/21 03:45:21;;;;;;;21.55;4.82;;;;;;;;;;4908521;29;20020;-89
2022/09/21 03:47:47;;;;;;;16.02;4.45;;;;;;;;;;4891526;29;20063;-90
2022/09/21 03:50:21;;;;;;;14.63;5.32;;;;;;;;;;4910889;29;20046;-90
2022/09/21 03:52:47;;;;;;;14.30;4.60;;;;;;;;;;4921994;29;20056;-89
2022/09/21 03:55:13;;;;;;;6.18;3.63;;;;;;;;;;4892359;29;20071;-90
2022/09/21 03:57:39;;;;;;;14.75;5.03;;;;;;;;;;4904275;29;20063;-90
2022/09/21 04:00:07;;;;;;;11.73;4.38;;;;;;;;;;4909632;29;20046;-89
2022/09/21 04:02:33;;;;;;;18.70;6.60;;;;;;;;;;4926477;29;20027;-89
2022/09/21 04:04:59;;;;;;;10.35;4.35;;;;;;;;;;4919404;29;20526;-89
2022/09/21 04:07:26;;;;;;;11.98;4.70;;;;;;;;;;4907812;29;20063;-89
2022/09/21 04:09:52;;;;;;;9.02;5.03;;;;;;;;;;4903278;29;20024;-89
2022/09/21 04:12:25;;;;;;;11.45;4.60;;;;;;;;;;4888771;29;20031;-89
2022/09/21 04:14:51;;;;;;;13.55;4.68;;;;;;;;;;4889672;29;20040;-90
2022/09/21 04:17:17;;;;;;;11.00;4.95;;;;;;;;;;4904500;29;20483;-89
2022/09/21 04:19:46;;;;;;;11.55;4.97;;;;;;;;;;4893268;29;20035;-90
2022/09/21 04:22:12;;;;;;;9.02;4.70;;;;;;;;;;4889824;29;20264;-89
2022/09/21 04:24:39;;;;;;;13.90;4.70;;;;;;;;;;4912548;29;20032;-90
2022/09/21 04:27:06;;;;;;;14.65;4.60;;;;;;;;;;4887748;29;20659;-88
2022/09/21 04:29:32;;;;;;;14.85;4.82;;;;;;;;;;4915449;29;20027;-89
2022/09/21 04:31:59;;;;;;;11.18;4.30;;;;;;;;;;4898120;29;20040;-89
2022/09/21 04:34:25;;;;;;;18.35;5.18;;;;;;;;;;4909966;29;20028;-89
2022/09/21 04:36:53;;;;;;;14.75;4.32;;;;;;;;;;4914791;28;20491;-90
2022/09/21 04:39:19;;;;;;;10.32;4.55;;;;;;;;;;4919155;29;20047;-89
2022/09/21 04:41:45;;;;;;;34.70;15.27;;;;;;;;;;4928381;29;20384;-88
2022/09/21 04:44:11;;;;;;;24.27;11.05;;;;;;;;;;4921399;28;20514;-88
2022/09/21 04:46:37;;;;;;;12.13;6.15;;;;;;;;;;4925419;29;20126;-89
2022/09/21 04:49:03;;;;;;;17.77;5.03;;;;;;;;;;4914490;29;20035;-88
2022/09/21 04:51:30;;;;;;;11.18;4.47;;;;;;;;;;4949296;28;20471;-88
2022/09/21 04:53:56;;;;;;;9.88;4.85;;;;;;;;;;4929489;28;20126;-88
2022/09/21 04:56:23;;;;;;;11.65;4.22;;;;;;;;;;4922531;29;20035;-88
2022/09/21 04:58:49;;;;;;;9.45;4.45;;;;;;;;;;4914057;29;20715;-89
2022/09/21 05:01:15;;;;;;;9.35;4.20;;;;;;;;;;4923102;28;20043;-89
2022/09/21 05:03:41;;;;;;;15.98;4.88;;;;;;;;;;4951255;28;20066;-89
2022/09/21 05:06:07;;;;;;;7.07;3.80;;;;;;;;;;4924895;28;20499;-89
2022/09/21 05:11:18;;;;;;;8.77;4.60;;;;;;;;;;4945184;28;20038;-89
2022/09/21 05:13:44;;;;;;;10.95;4.55;;;;;;;;;;4911240;28;20049;-88
2022/09/21 05:16:10;;;;;;;12.20;4.45;;;;;;;;;;4928319;29;20040;-88
2022/09/21 05:18:37;;;;;;;8.82;4.38;;;;;;;;;;4946234;28;20038;-87
2022/09/21 05:21:03;;;;;;;11.15;4.38;;;;;;;;;;4915086;28;20176;-87
2022/09/21 05:23:30;;;;;;;11.52;4.38;;;;;;;;;;4910495;28;20543;-87
2022/09/21 05:25:57;;;;;;;11.48;4.95;;;;;;;;;;4928607;29;20043;-90
2022/09/21 05:28:24;;;;;;;9.85;3.67;;;;;;;;;;4918983;28;20035;-89
2022/09/21 05:30:57;;;;;;;13.10;4.35;;;;;;;;;;4924930;29;20030;-88
2022/09/21 05:33:25;;;;;;;7.97;3.90;;;;;;;;;;4926276;28;20066;-88
2022/09/21 05:35:54;;;;;;;9.23;4.28;;;;;;;;;;4933273;28;20035;-88
2022/09/21 05:38:21;;;;;;;12.70;4.95;;;;;;;;;;4937232;28;20050;-89
2022/09/21 05:40:49;;;;;;;15.75;5.30;;;;;;;;;;4944694;28;20502;-87
2022/09/21 05:43:15;;;;;;;22.48;4.68;;;;;;;;;;4934935;28;20579;-90
2022/09/21 05:45:44;;;;;;;14.18;4.82;;;;;;;;;;4946941;28;20035;-88
2022/09/21 05:48:21;;;;;;;12.52;4.50;;;;;;;;;;4941690;28;20028;-89
2022/09/21 05:50:50;;;;;;;8.73;3.80;;;;;;;;;;4942325;28;20485;-89
2022/09/21 05:53:24;;;;;;;12.68;3.92;;;;;;;;;;4958048;28;20065;-90
2022/09/21 05:55:57;;;;;;;9.20;4.10;;;;;;;;;;4945631;28;20041;-92
2022/09/21 05:58:32;;;;;;;8.15;4.35;;;;;;;;;;4929783;28;20038;-88
2022/09/21 06:01:08;;;;;;;24.30;6.47;;;;;;;;;;4941588;28;20042;-88
2022/09/21 06:03:35;;;;;;;10.27;4.20;;;;;;;;;;4946422;28;20034;-89
2022/09/21 06:06:01;;;;;;;9.10;3.83;;;;;;;;;;4945229;28;20506;-89
2022/09/21 06:08:27;;;;;;;15.57;4.50;;;;;;;;;;4932761;28;20121;-91
2022/09/21 06:10:54;;;;;;;8.82;4.30;;;;;;;;;;4926006;28;20398;-89
2022/09/21 06:13:20;;;;;;;13.27;5.22;;;;;;;;;;4960868;28;20037;-89
2022/09/21 06:15:46;;;;;;;13.35;4.57;;;;;;;;;;4925536;28;20050;-91
2022/09/21 06:18:13;;;;;;;11.02;4.13;;;;;;;;;;4943746;28;20042;-89
2022/09/21 06:20:39;;;;;;;15.80;4.53;;;;;;;;;;4941401;28;20153;-89
2022/09/21 06:23:07;;;;;;;16.55;4.45;;;;;;;;;;4942497;28;20454;-89
2022/09/21 06:25:33;;;;;;;12.95;4.10;;;;;;;;;;4953487;28;20506;-89
2022/09/21 06:28:06;;;;;;;7.78;3.13;;;;;;;;;;4929109;28;20023;-90
2022/09/21 06:30:33;;;;;;;7.72;3.70;;;;;;;;;;4956225;28;20039;-90
2022/09/21 06:33:00;;;;;;;5.50;3.35;;;;;;;;;;4941012;28;20460;-90
2022/09/21 06:35:30;;;;;;;8.60;3.30;;;;;;;;;;4925581;28;20133;-90
2022/09/21 06:37:58;;;;;;;10.40;3.67;;;;;;;;;;4944856;28;20442;-90
2022/09/21 06:40:24;;;;;;;11.13;4.10;;;;;;;;;;4954975;28;21084;-90
2022/09/21 06:42:50;;;;;;;11.65;3.45;;;;;;;;;;4938828;28;20047;-90
2022/09/21 06:45:16;;;;;;;8.00;3.95;;;;;;;;;;4922511;29;20121;-90
2022/09/21 06:47:47;;;;;;;11.77;3.35;;;;;;;;;;4938711;28;20031;-90
2022/09/21 06:50:13;;;;;;;9.00;3.08;;;;;;;;;;4926762;29;20444;-90
2022/09/21 06:52:40;;;;;;;11.55;3.35;;;;;;;;;;4940527;28;20631;-90
2022/09/21 06:55:07;;;;;;;7.57;3.35;;;;;;;;;;4921011;28;20032;-90
2022/09/21 06:57:33;;;;;;;16.20;3.78;;;;;;;;;;4940556;28;20030;-90
2022/09/21 06:59:59;;;;;;;13.43;3.60;;;;;;;;;;4943086;28;20257;-89
2022/09/21 07:02:25;;;;;;;10.80;2.90;;;;;;;;;;4941056;28;20055;-89
2022/09/21 07:04:51;;;;;;;6.72;3.10;;;;;;;;;;4920946;28;20498;-90
2022/09/21 07:07:17;;;;;;;6.95;3.25;;;;;;;;;;4926388;29;20027;-90
2022/09/21 07:09:44;;;;;;;14.10;3.35;;;;;;;;;;4945493;28;20392;-90
2022/09/21 07:12:10;;;;;;;10.70;3.42;;;;;;;;;;4930072;28;20050;-90
2022/09/21 07:14:36;;;;;;;20.23;4.13;;;;;;;;;;4931752;28;20031;-90
2022/09/21 07:17:02;;;;;;;8.93;3.33;;;;;;;;;;4932405;28;20522;-90
2022/09/21 07:19:28;;;;;;;9.93;3.63;;;;;;;;;;4940864;28;20035;-90
2022/09/21 07:21:54;;;;;;;11.45;3.97;;;;;;;;;;4926566;28;20039;-90
2022/09/21 07:24:21;;;;;;;24.13;5.78;;;;;;;;;;4924554;28;20459;-90
2022/09/21 07:26:48;;;;;;;20.35;5.53;;;;;;;;;;4924742;28;20411;-90
2022/09/21 07:29:14;;;;;;;21.38;5.07;;;;;;;;;;4924557;28;20130;-90
2022/09/21 07:31:44;;;;;;;16.60;4.55;;;;;;;;;;4930891;28;20067;-91
2022/09/21 07:34:10;;;;;;;16.27;4.00;;;;;;;;;;4938031;28;20582;-90
2022/09/21 07:36:37;;;;;;;12.98;3.88;;;;;;;;;;4941054;28;20038;-91
2022/09/21 07:39:03;;;;;;;18.85;4.93;;;;;;;;;;4958703;28;20566;-89
2022/09/21 07:41:29;;;;;;;12.85;3.78;;;;;;;;;;4923497;28;20047;-90
2022/09/21 07:43:55;;;;;;;21.13;3.28;;;;;;;;;;4924748;28;20041;-91
2022/09/21 07:46:21;;;;;;;10.02;2.50;;;;;;;;;;4935579;28;20039;-90
2022/09/21 07:48:47;;;;;;;11.80;1.83;;;;;;;;;;4941357;28;20039;-91
2022/09/21 07:51:14;;;;;;;9.32;3.28;;;;;;;;;;4920632;28;20035;-91
2022/09/21 07:53:42;;;;;;;10.80;2.20;;;;;;;;;;4937867;28;20032;-91
2022/09/21 07:56:13;;;;;;;6.30;1.90;;;;;;;;;;4958633;28;20126;-91
2022/09/21 08:01:24;;;;;;;7.07;2.10;;;;;;;;;;4938929;28;20058;-91
2022/09/21 08:03:51;;;;;;;8.50;2.00;;;;;;;;;;4949697;28;20097;-90
2022/09/21 08:06:17;;;;;;;5.07;1.30;;;;;;;;;;4926018;28;20729;-90
2022/09/21 08:08:46;;;;;;;5.78;1.70;;;;;;;;;;4941210;28;20031;-92
2022/09/21 08:11:13;;;;;;;8.63;2.10;;;;;;;;;;4912441;28;20043;-91
2022/09/21 08:13:42;;;;;;;4.70;1.75;;;;;;;;;;4954548;28;20416;-91
2022/09/21 08:16:11;;;;;;;7.28;1.95;;;;;;;;;;4926063;29;20058;-92
2022/09/21 08:18:38;;;;;;;8.77;1.63;;;;;;;;;;4939209;28;20040;-91
2022/09/21 08:21:04;;;;;;;9.40;1.65;;;;;;;;;;4946928;28;20070;-91
2022/09/21 08:23:31;;;;;;;9.23;2.25;;;;;;;;;;4940019;28;21021;-91
2022/09/21 08:25:59;;;;;;;7.75;1.95;;;;;;;;;;4946239;28;20154;-90
2022/09/21 08:28:25;;;;;;;7.07;2.35;;;;;;;;;;4924308;28;20051;-91
2022/09/21 08:30:51;;;;;;;9.07;2.10;;;;;;;;;;4930673;29;20038;-91
2022/09/21 08:33:17;;;;;;;13.40;2.13;;;;;;;;;;4927932;28;20128;-92
2022/09/21 08:35:51;;;;;;;9.20;1.85;;;;;;;;;;4930496;29;20759;-91
2022/09/21 08:38:20;;;;;;;12.10;1.83;;;;;;;;;;4946523;28;20087;-91
2022/09/21 08:40:47;;;;;;;8.27;1.95;;;;;;;;;;4942595;28;20046;-91
2022/09/21 08:43:15;;;;;;;8.32;1.55;;;;;;;;;;4941989;28;20034;-90
2022/09/21 08:45:43;;;;;;;9.68;1.70;;;;;;;;;;4937204;28;20039;-91
2022/09/21 08:48:20;;;;;;;7.65;1.90;;;;;;;;;;4954860;28;20031;-91
2022/09/21 08:50:57;;;;;;;4.85;1.55;;;;;;;;;;4941736;28;20086;-91
2022/09/21 08:53:43;;;;;;;6.93;1.77;;;;;;;;;;4941172;28;20119;-91
2022/09/21 08:56:13;;;;;;;8.43;1.50;;;;;;;;;;4954481;28;20047;-90
2022/09/21 08:58:40;;;;;;;8.38;1.85;;;;;;;;;;4942615;28;20035;-91
2022/09/21 09:01:06;;;;;;;13.38;1.90;;;;;;;;;;4935178;28;20050;-91
2022/09/21 09:03:49;;;;;;;7.38;2.22;;;;;;;;;;4939326;28;20606;-91
2022/09/21 09:06:19;;;;;;;11.98;1.83;;;;;;;;;;4933511;28;20153;-91
2022/09/21 09:09:00;;;;;;;6.75;1.75;;;;;;;;;;4942548;28;20620;-91
2022/09/21 09:11:29;;;;;;;8.45;2.42;;;;;;;;;;4942582;28;20075;-91
2022/09/21 09:14:14;;;;;;;8.88;1.80;;;;;;;;;;4936021;28;20046;-91
2022/09/21 09:17:04;;;;;;;11.18;2.20;;;;;;;;;;4934028;28;20039;-91
2022/09/21 09:19:53;;;;;;;3.20;1.55;;;;;;;;;;4935057;28;20023;-90
2022/09/21 09:22:25;;;;;;;4.20;1.90;;;;;;;;;;4929817;28;20570;-91
2022/09/21 09:24:51;;;;;;;4.38;2.08;;;;;;;;;;4934175;28;20531;-92
2022/09/21 09:27:30;;;;;;;8.10;2.47;;;;;;;;;;4953753;28;20046;-91
2022/09/21 09:30:05;;;;;;;7.90;2.10;;;;;;;;;;4939243;28;20550;-91
2022/09/21 09:32:37;;;;;;;6.83;2.30;;;;;;;;;;4938436;28;20035;-90
2022/09/21 09:35:20;;;;;;;4.78;1.80;;;;;;;;;;4939610;28;20275;-90
2022/09/21 09:37:48;;;;;;;6.28;2.30;;;;;;;;;;4956485;28;20035;-92
2022/09/21 09:40:16;;;;;;;6.10;2.20;;;;;;;;;;4904874;29;20066;-91
2022/09/21 09:42:52;;;;;;;4.65;1.73;;;;;;;;;;4905072;29;20060;-90
2022/09/21 09:45:24;;;;;;;5.25;2.05;;;;;;;;;;4907711;29;20067;-90
2022/09/21 09:48:01;;;;;;;6.90;1.70;;;;;;;;;;4906566;29;20024;-91
2022/09/21 09:50:45;;;;;;;4.72;1.83;;;;;;;;;;4907039;29;20091;-90
2022/09/21 09:53:16;;;;;;;6.97;1.65;;;;;;;;;;4906818;29;20642;-91
2022/09/21 09:56:19;;;;;;;;;;;;;;;;;;;;;
2022/09/21 09:59:13;;;;;;;8.25;1.95;;;;;;;;;;4913467;29;20040;-90
2022/09/21 10:01:45;;;;;;;8.50;1.98;;;;;;;;;;4918292;29;20032;-90
2022/09/21 10:04:16;;;;;;;5.00;1.90;;;;;;;;;;4901462;29;20027;-90
2022/09/21 10:06:42;;;;;;;5.43;1.80;;;;;;;;;;4903097;29;20086;-90
2022/09/21 10:09:28;;;;;;;7.40;1.50;;;;;;;;;;4903273;29;20503;-90
2022/09/21 10:11:54;;;;;;;;;;;;;;;;;;4908855;29;20448;-90
2022/09/21 10:14:21;;;;;;;4.20;1.95;;;;;;;;;;4904045;29;19964;-90
2022/09/21 10:16:50;;;;;;;6.63;1.83;;;;;;;;;;4905891;29;20036;-90
2022/09/21 10:19:35;;;;;;;4.68;2.45;;;;;;;;;;4910273;29;20070;-90
2022/09/21 10:22:01;;;;;;;6.10;2.08;;;;;;;;;;4923318;29;20043;-90
2022/09/21 10:24:29;;;;;;;7.10;2.08;;;;;;;;;;4911037;29;20110;-90
2022/09/21 10:26:56;;;;;;;6.43;2.20;;;;;;;;;;4904633;29;20090;-89
2022/09/21 10:29:22;;;;;;;5.03;1.98;;;;;;;;;;4908343;29;20043;-90
2022/09/21 10:31:56;;;;;;;4.40;1.90;;;;;;;;;;4906052;29;20161;-90
2022/09/21 10:34:22;;;;;;;5.78;2.00;;;;;;;;;;4905482;29;20514;-90
2022/09/21 10:36:56;;;;;;;5.45;2.42;;;;;;;;;;4911617;29;20130;-90
2022/09/21 10:39:27;;;;;;;6.75;2.00;;;;;;;;;;4936716;28;20058;-90
2022/09/21 10:42:10;;;;;;;6.07;2.00;;;;;;;;;;4942489;28;20035;-90
2022/09/21 10:44:44;;;;;;;4.55;1.65;;;;;;;;;;4944721;28;20030;-90
2022/09/21 10:47:23;;;;;;;;;;;;;;;;;;4658693;27;10884905;-91
2022/09/21 10:49:58;;;;;;;5.35;2.08;;;;;;;;;;5012607;28;20444;-91
2022/09/21 10:52:25;;;;;;;11.93;2.83;;;;;;;;;;5015769;28;20037;-91
2022/09/21 10:54:54;;;;;;;7.28;2.20;;;;;;;;;;5010694;28;20061;-91
2022/09/21 10:57:22;;;;;;;3.35;1.80;;;;;;;;;;5011522;28;20040;-91
2022/09/21 10:59:48;;;;;;;7.35;2.15;;;;;;;;;;5018946;28;20362;-91
2022/09/21 11:02:25;;;;;;;5.28;2.17;;;;;;;;;;4998616;28;20466;-91
2022/09/21 11:04:56;;;;;;;6.40;1.50;;;;;;;;;;5020934;28;20026;-91
2022/09/21 11:07:32;;;;;;;2.50;1.73;;;;;;;;;;5021734;28;20049;-91
2022/09/21 11:10:17;;;;;;;4.82;1.88;;;;;;;;;;5012216;28;20026;-91
2022/09/21 11:12:49;;;;;;;5.57;1.70;;;;;;;;;;5012131;28;20030;-92
2022/09/21 11:15:19;;;;;;;3.63;1.33;;;;;;;;;;5009191;28;20069;-91
2022/09/21 11:17:53;;;;;;;5.50;2.13;;;;;;;;;;5012483;28;20030;-91
2022/09/21 11:20:22;;;;;;;4.30;1.73;;;;;;;;;;5013344;28;20038;-91
2022/09/21 11:23:07;;;;;;;3.17;1.73;;;;;;;;;;5013480;28;20365;-91
2022/09/21 11:25:40;;;;;;;6.50;1.40;;;;;;;;;;5015259;28;20036;-91
2022/09/21 11:28:24;;;;;;;2.13;1.55;;;;;;;;;;5015944;28;20449;-91
2022/09/21 11:30:53;;;;;;;1.50;1.40;;;;;;;;;;5010309;28;20092;-91
2022/09/21 11:33:48;;;;;;;3.95;1.45;;;;;;;;;;5003932;28;20061;-92
2022/09/21 11:36:28;;;;;;;10.15;1.80;;;;;;;;;;5005929;28;20598;-92
2022/09/21 11:39:13;;;;;;;3.53;1.02;;;;;;;;;;5009708;28;20030;-91
2022/09/21 11:41:58;;;;;;;3.17;1.70;;;;;;;;;;5004184;28;20112;-91
2022/09/21 11:44:42;;;;;;;4.43;1.00;;;;;;;;;;5000946;28;20036;-91
2022/09/21 11:47:15;;;;;;;7.05;1.33;;;;;;;;;;5007973;28;20050;-91
2022/09/21 11:49:51;;;;;;;10.25;1.60;;;;;;;;;;5005275;28;20975;-89
2022/09/21 11:52:38;;;;;;;11.82;1.60;;;;;;;;;;5013424;28;20077;-89
2022/09/21 11:55:11;;;;;;;3.83;1.80;;;;;;;;;;5008847;28;20570;-90
2022/09/21 11:57:48;;;;;;;8.68;1.45;;;;;;;;;;4993715;28;20038;-90
2022/09/21 12:00:14;;;;;;;6.55;2.35;;;;;;;;;;4994189;28;20060;-90
2022/09/21 12:02:59;;;;;;;4.53;1.40;;;;;;;;;;4995023;28;20030;-90
2022/09/21 12:05:40;;;;;;;3.47;1.87;;;;;;;;;;4993072;28;20022;-90
2022/09/21 12:08:21;;;;;;;6.78;1.58;;;;;;;;;;4996496;28;20703;-90
2022/09/21 12:11:17;;;;;;;4.10;1.80;;;;;;;;;;4992539;28;20039;-91
2022/09/21 12:13:43;;;;;;;1.73;1.15;;;;;;;;;;4928057;28;20046;-90
2022/09/21 12:16:28;;;;;;;4.25;1.30;;;;;;;;;;4989821;28;20034;-91
2022/09/21 12:18:59;;;;;;;6.13;1.30;;;;;;;;;;4994303;28;20032;-91
2022/09/21 12:21:31;;;;;;;2.80;1.20;;;;;;;;;;4992038;28;20126;-91
2022/09/21 12:23:58;;;;;;;5.32;1.45;;;;;;;;;;4990432;28;20126;-89
2022/09/21 12:26:28;;;;;;;2.15;0.85;;;;;;;;;;4990114;28;20048;-91
2022/09/21 12:29:00;;;;;;;5.25;1.52;;;;;;;;;;4992046;28;20113;-90
2022/09/21 12:31:32;;;;;;;3.20;1.20;;;;;;;;;;4984519;28;20130;-90
2022/09/21 12:34:02;;;;;;;7.68;1.17;;;;;;;;;;4991855;28;20026;-90
2022/09/21 12:36:33;;;;;;;4.68;1.50;;;;;;;;;;4993944;28;20033;-90
2022/09/21 12:39:05;;;;;;;5.03;1.10;;;;;;;;;;4989837;28;20486;-89
2022/09/21 12:41:42;;;;;;;3.15;1.23;;;;;;;;;;4998735;28;20046;-91
2022/09/21 12:44:50;;;;;;;7.13;1.38;;;;;;;;;;4994024;28;20129;-90
2022/09/21 12:47:17;;;;;;;6.47;1.02;;;;;;;;;;4989463;28;20057;-90
2022/09/21 12:49:45;;;;;;;8.20;1.48;;;;;;;;;;4994324;28;20041;-89
2022/09/21 12:52:15;;;;;;;7.68;1.20;;;;;;;;;;5007052;28;20099;-90
2022/09/21 12:54:46;;;;;;;3.13;1.05;;;;;;;;;;4987845;28;20037;-90
2022/09/21 12:57:23;;;;;;;1.85;0.82;;;;;;;;;;4991816;28;20069;-88
2022/09/21 13:00:09;;;;;;;5.68;1.17;;;;;;;;;;4989940;28;20356;-89
2022/09/21 13:02:39;;;;;;;5.00;0.90;;;;;;;;;;4996328;28;20030;-89
2022/09/21 13:05:15;;;;;;;7.15;1.05;;;;;;;;;;4988760;28;20026;-89
2022/09/21 13:07:59;;;;;;;7.88;1.67;;;;;;;;;;4999408;28;20025;-89
2022/09/21 13:10:41;;;;;;;;;;;;;;;;;;;;;
2022/09/21 13:13:22;;;;;;;4.35;1.10;;;;;;;;;;4988205;28;20058;-90
2022/09/21 13:15:48;;;;;;;5.70;1.20;;;;;;;;;;4991638;28;20029;-90
2022/09/21 13:18:24;;;;;;;3.95;0.90;;;;;;;;;;4987786;28;20038;-89
2022/09/21 13:20:51;;;;;;;4.30;0.93;;;;;;;;;;4999949;28;20721;-89
2022/09/21 13:23:30;;;;;;;7.55;0.90;;;;;;;;;;4992266;28;20113;-89
2022/09/21 13:26:03;;;;;;;7.38;0.90;;;;;;;;;;4995680;28;20061;-89
2022/09/21 13:28:48;;;;;;;7.88;1.42;;;;;;;;;;4990566;28;20034;-89
2022/09/21 13:31:15;;;;;;;3.33;1.10;;;;;;;;;;4993716;28;20026;-88
2022/09/21 13:34:01;;;;;;;4.47;1.05;;;;;;;;;;4991140;28;20034;-89
2022/09/21 13:36:32;;;;;;;6.32;1.30;;;;;;;;;;4990712;28;20500;-88
2022/09/21 13:39:04;;;;;;;3.97;1.10;;;;;;;;;;4993764;28;20033;-89
2022/09/21 13:41:30;;;;;;;6.45;1.35;;;;;;;;;;4989666;28;20053;-89
2022/09/21 13:44:04;;;;;;;6.13;1.10;;;;;;;;;;4987733;28;20034;-89
2022/09/21 13:46:36;;;;;;;8.52;1.13;;;;;;;;;;4994710;28;20050;-89
2022/09/21 13:49:14;;;;;;;5.63;1.38;;;;;;;;;;4994740;28;20493;-89
2022/09/21 13:52:00;;;;;;;7.68;1.33;;;;;;;;;;4995767;28;20040;-89
2022/09/21 13:54:30;;;;;;;4.38;1.20;;;;;;;;;;4990395;28;20030;-90
2022/09/21 13:57:05;;;;;;;5.80;0.85;;;;;;;;;;4993505;28;20957;-90
2022/09/21 13:59:32;;;;;;;4.75;0.80;;;;;;;;;;4997029;28;20173;-90
2022/09/21 14:01:59;;;;;;;4.13;1.17;;;;;;;;;;4999907;28;20030;-89
2022/09/21 14:04:26;;;;;;;7.97;1.00;;;;;;;;;;4981390;28;20124;-90
2022/09/21 14:06:53;;;;;;;4.95;1.15;;;;;;;;;;4989561;28;20104;-88
2022/09/21 14:09:27;;;;;;;6.05;1.20;;;;;;;;;;4996921;28;20037;-90
2022/09/21 14:11:56;;;;;;;4.43;1.10;;;;;;;;;;4989072;28;20394;-89
2022/09/21 14:14:25;;;;;;;3.10;1.15;;;;;;;;;;4996134;28;20033;-90
2022/09/21 14:16:52;;;;;;;5.00;1.08;;;;;;;;;;5001308;28;20469;-90
2022/09/21 14:19:18;;;;;;;5.32;1.20;;;;;;;;;;4984606;28;20034;-89
2022/09/21 14:22:03;;;;;;;8.80;1.25;;;;;;;;;;4993170;28;21080;-90
2022/09/21 14:24:40;;;;;;;5.00;1.45;;;;;;;;;;4995037;28;20030;-90
2022/09/21 14:27:12;;;;;;;3.75;1.00;;;;;;;;;;4996346;28;20364;-90
2022/09/21 14:29:43;;;;;;;6.72;1.20;;;;;;;;;;4995473;28;20149;-90
2022/09/21 14:32:22;;;;;;;2.53;1.10;;;;;;;;;;4988982;28;20025;-89
2022/09/21 14:34:49;;;;;;;3.65;0.98;;;;;;;;;;4996032;28;20033;-89
2022/09/21 14:37:21;;;;;;;5.22;0.82;;;;;;;;;;4990507;28;20613;-89
2022/09/21 14:39:48;;;;;;;7.30;1.42;;;;;;;;;;4994699;28;20038;-90
2022/09/21 14:42:18;;;;;;;4.70;1.30;;;;;;;;;;4988616;28;20100;-90
2022/09/21 14:44:50;;;;;;;4.47;1.15;;;;;;;;;;4993612;28;20125;-89
2022/09/21 14:47:52;;;;;;;2.65;1.00;;;;;;;;;;5002271;28;20058;-89
2022/09/21 14:50:25;;;;;;;3.40;0.77;;;;;;;;;;4963238;28;20023;-89
2022/09/21 14:53:18;;;;;;;6.00;1.25;;;;;;;;;;4983839;28;20050;-90
2022/09/21 14:55:47;;;;;;;6.57;1.20;;;;;;;;;;4986514;28;20460;-89
2022/09/21 14:58:13;;;;;;;3.10;0.90;;;;;;;;;;4991225;28;20034;-90
2022/09/21 15:00:44;;;;;;;8.68;1.48;;;;;;;;;;4994378;28;20065;-90
2022/09/21 15:03:29;;;;;;;6.10;1.30;;;;;;;;;;4993354;28;20030;-90
2022/09/21 15:12:08;;;;;;;13.65;1.70;;;;;;;;;;4994810;28;20112;-90
2022/09/21 15:14:42;;;;;;;6.00;0.77;;;;;;;;;;4993388;28;20026;-91